Pagrindinis puslapis
METAR-TAF:

METAR-TAF

Oro uostai :

Karakasas, Venesuela

platuma: 10-36N, ilguma: 066-59W, Aukštis: 43 m

Dabartinis oras

Ataskaita buvo paskelbta 1 valandą ir 16 minutes, ne 22:02 UTC
Vėjas 9 kt iš Rytų/Šiaurės Rytų
Temperatūra
Slėgis 1012 hPa

METAR: SVMI 212202Z AUTO 07009KT NCD -40/// Q1012

Laikas: 19:18 (23:18 UTC)

Prognozė

Ataskaita buvo paskelbta 7 valandos ir 18 minutes, ne 16:00 UTC
Prognozė galioja nuo 21 metu 18 UTC su 22 metu 18 UTC
Vėjas 3 kt iš Rytų
Matomumas 10 km arba daugiau
Mažai debesys ne aukštis 1600 ft
Laikinai
nuo 21 metu 16 UTC su 21 metu 22 UTC
Vėjas 4 kt iš Rytų
Išsisklaidę debesys ne aukštis 1600 ft
Išsisklaidę debesys ne aukštis 10000 ft

TAF: SVMI 211600Z 2118/2218 09003KT 9999 FEW016 TX29/18Z TN24/08Z TEMPO 2116/2122 08004KT 99999 SCT016 SCT100

Orai ataskaitas ir orų prognozės (METAR, TAF).

turimą stotys yra geltonos ir raudonos taškus žemėlapyje.

Perkelti pele per norėdami pamatyti stoties vardą.

Tada spustelėkite, norėdami matyti oro stebėjimo ir prognozės.

Norėdami pakeisti žemėlapį: spustelėkite ant žalios mygtukų su juodo kryžiaus žemyn,; žalią mygtuką su brūkšneliu, jei norite nutolinti; arba žalių rodyklių gretimoms žemėlapius.


METAR-TAF: